Archiv-/Tagesdaten

--Timestamp---	Temp	Chill	HIndex	Humid	Dewpt	Wind	HiWind	WindDir	Rain	Barom	        Solar	ET	UV
--------------	----	-----	------	-----	-----	----	------	-------	----	-----	        -----	--	--
20090326 00:05	2.4	-0.7	2.4	85	0.1	11	24	247	0.20	1002.679	0	0.000	0
20090326 00:10	2.3	-0.8	2.3	86	0.2	11	26	270	0.00	1002.645	0	0.000	0
20090326 00:15	2.2	-0.6	2.2	86	0.1	10	19	247	0.00	1002.645	0	0.000	0
20090326 00:20	2.2	-1.0	2.2	87	0.2	11	23	247	0.00	1002.679	0	0.000	0
20090326 00:25	2.2	-0.6	2.2	87	0.2	10	23	247	0.00	1002.645	0	0.000	0
20090326 00:30	2.1	0.2	2.1	87	0.1	6	16	247	0.00	1002.679	0	0.000	0
20090326 00:35	2.0	-0.8	2.0	88	0.2	10	19	247	0.00	1002.645	0	0.000	0
20090326 00:40	1.9	-1.3	1.9	88	0.1	11	23	247	0.20	1002.916	0	0.000	0
20090326 00:45	1.8	-1.8	1.8	89	0.2	13	26	247	0.00	1002.848	0	0.000	0
20090326 00:50	1.6	-1.3	1.6	89	-0.0	10	23	247	0.20	1002.848	0	0.000	0
20090326 00:55	1.4	-1.9	1.4	89	-0.2	11	24	247	0.00	1002.848	0	0.000	0
20090326 01:00	1.3	-1.2	1.3	90	-0.1	8	16	247	0.00	1002.983	0	0.020	0
20090326 01:05	1.3	-1.6	1.3	90	-0.1	10	21	247	0.20	1003.254	0	0.000	0
20090326 01:10	1.3	-2.0	1.3	91	0.0	11	23	247	0.00	1003.254	0	0.000	0
20090326 01:15	1.3	-2.0	1.3	91	0.0	11	21	247	0.00	1003.288	0	0.000	0
20090326 01:20	1.3	-1.2	1.3	91	0.0	8	21	247	0.00	1003.390	0	0.000	0
20090326 01:25	1.3	-1.7	1.3	91	-0.0	10	21	247	0.00	1003.390	0	0.000	0
20090326 01:30	1.2	-1.8	1.2	91	-0.1	10	23	247	0.00	1003.424	0	0.000	0
20090326 01:35	1.1	-1.9	1.1	91	-0.2	10	23	247	0.20	1003.525	0	0.000	0
20090326 01:40	0.9	-2.1	0.9	91	-0.4	10	19	247	0.00	1003.627	0	0.000	0
20090326 01:45	0.7	-2.0	0.7	91	-0.6	8	19	247	0.20	1003.661	0	0.000	0
20090326 01:50	0.5	-2.1	0.5	91	-0.8	8	16	270	0.00	1003.762	0	0.000	0
20090326 01:55	0.3	-1.8	0.3	91	-1.0	6	14	270	0.20	1003.796	0	0.000	0
20090326 02:00	0.2	-1.9	0.2	92	-0.9	6	18	247	0.00	1003.898	0	0.000	0
20090326 02:05	0.2	-1.9	0.2	92	-0.9	6	11	270	0.00	1004.101	0	0.000	0
20090326 02:10	0.2	-1.9	0.2	92	-0.9	6	14	270	0.00	1004.135	0	0.000	0
20090326 02:15	0.2	-2.5	0.2	92	-0.9	8	18	247	0.20	1004.203	0	0.000	0
20090326 02:20	0.3	-2.4	0.3	92	-0.9	8	19	247	0.00	1004.338	0	0.000	0
20090326 02:25	0.4	-2.7	0.4	92	-0.8	10	19	247	0.00	1004.440	0	0.000	0
20090326 02:30	0.4	-3.1	0.4	92	-0.7	11	21	270	0.00	1004.643	0	0.000	0
20090326 02:35	0.6	-3.6	0.6	93	-0.4	14	26	270	0.00	1004.744	0	0.000	0
20090326 02:40	0.6	-3.5	0.6	92	-0.5	14	27	270	0.00	1004.846	0	0.000	0
20090326 02:45	0.7	-3.5	0.7	92	-0.5	14	24	270	0.00	1004.948	0	0.000	0
20090326 02:50	0.7	-3.4	0.7	92	-0.4	14	26	270	0.00	1005.015	0	0.000	0
20090326 02:55	0.8	-3.3	0.8	92	-0.4	14	29	270	0.00	1005.083	0	0.000	0
20090326 03:00	0.8	-3.3	0.8	92	-0.3	14	26	270	0.00	1005.083	0	0.000	0
20090326 03:05	0.9	-3.2	0.9	91	-0.4	14	29	270	0.00	1005.286	0	0.000	0
20090326 03:10	0.9	-3.1	0.9	91	-0.4	14	24	270	0.00	1005.523	0	0.000	0
20090326 03:15	1.0	-3.1	1.0	91	-0.3	14	24	270	0.00	1005.388	0	0.000	0
20090326 03:20	1.0	-3.1	1.0	91	-0.3	14	27	270	0.00	1005.489	0	0.000	0
20090326 03:25	1.0	-3.1	1.0	91	-0.3	14	27	270	0.00	1005.591	0	0.000	0
20090326 03:30	1.0	-3.1	1.0	91	-0.3	14	23	270	0.00	1005.693	0	0.000	0
20090326 03:35	1.1	-2.3	1.1	91	-0.2	11	24	270	0.00	1005.862	0	0.000	0
20090326 03:40	1.1	-2.3	1.1	91	-0.2	11	18	270	0.00	1005.963	0	0.000	0
20090326 03:45	1.1	-2.3	1.1	91	-0.2	11	26	247	0.00	1006.031	0	0.000	0
20090326 03:50	1.2	-1.8	1.2	91	-0.1	10	18	270	0.00	1006.031	0	0.000	0
20090326 03:55	1.2	-1.4	1.2	90	-0.3	8	14	270	0.00	1006.133	0	0.000	0
20090326 04:00	1.3	-1.7	1.3	91	-0.0	10	21	247	0.00	1006.167	0	0.000	0
20090326 04:05	1.3	-1.6	1.3	90	-0.1	10	19	247	0.00	1006.167	0	0.000	0
20090326 04:10	1.3	-1.2	1.3	90	-0.1	8	19	247	0.00	1006.133	0	0.000	0
20090326 04:15	1.3	-1.6	1.3	90	-0.1	10	19	247	0.00	1006.302	0	0.000	0
20090326 04:20	1.3	-2.0	1.3	90	-0.1	11	19	247	0.00	1006.336	0	0.000	0
20090326 04:25	1.4	-1.9	1.4	90	-0.0	11	23	270	0.00	1006.302	0	0.000	0
20090326 04:30	1.5	-1.8	1.5	89	-0.1	11	24	247	0.00	1006.336	0	0.000	0
20090326 04:35	1.5	-1.4	1.5	89	-0.1	10	19	247	0.00	1006.438	0	0.000	0
20090326 04:40	1.4	-2.3	1.4	90	-0.1	13	32	247	0.00	1006.505	0	0.000	0
20090326 04:45	1.3	-1.6	1.3	90	-0.1	10	19	247	0.00	1006.505	0	0.000	0
20090326 04:50	1.3	-2.7	1.3	90	-0.1	14	27	247	0.00	1006.573	0	0.000	0
20090326 04:55	1.3	-2.4	1.3	90	-0.2	13	27	247	0.20	1006.675	0	0.000	0
20090326 05:00	1.2	-2.1	1.2	90	-0.2	11	21	247	0.00	1006.776	0	0.000	0
20090326 05:05	1.1	-2.6	1.1	90	-0.3	13	27	247	0.00	1006.912	0	0.000	0
20090326 05:10	0.9	-2.5	0.9	90	-0.5	11	26	247	0.00	1007.013	0	0.000	0
20090326 05:15	0.8	-2.7	0.8	91	-0.5	11	19	247	0.20	1007.013	0	0.000	0
20090326 05:20	0.7	-2.8	0.7	91	-0.6	11	21	247	0.00	1007.149	0	0.000	0
20090326 05:25	0.6	-2.9	0.6	91	-0.7	11	21	247	0.00	1007.216	0	0.000	0
20090326 05:30	0.7	-3.2	0.7	92	-0.5	13	24	247	0.20	1007.250	0	0.000	0
20090326 05:35	0.7	-2.3	0.7	92	-0.4	10	24	247	0.00	1007.386	0	0.000	0
20090326 05:40	0.8	-2.7	0.8	92	-0.4	11	23	247	0.00	1007.453	0	0.000	0
20090326 05:45	0.7	-2.3	0.7	92	-0.4	10	19	247	0.00	1007.487	0	0.000	0
20090326 05:50	0.7	-2.3	0.7	92	-0.4	10	19	247	0.00	1007.589	0	0.000	0
20090326 05:55	0.7	-2.7	0.7	92	-0.4	11	24	270	0.00	1007.724	0	0.000	0
20090326 06:00	0.7	-2.8	0.7	92	-0.5	11	23	247	0.20	1007.792	0	0.000	0
20090326 06:05	0.6	-2.9	0.6	92	-0.5	11	23	247	0.00	1007.724	0	0.000	0
20090326 06:10	0.6	-2.5	0.6	92	-0.6	10	21	247	0.20	1007.826	0	0.000	0
20090326 06:15	0.5	-2.6	0.5	92	-0.6	10	18	247	0.00	1007.928	0	0.000	0
20090326 06:20	0.4	-3.1	0.4	92	-0.8	11	21	247	0.20	1007.928	3	0.000	0
20090326 06:25	0.4	-2.7	0.4	92	-0.7	10	21	247	0.00	1008.029	0	0.000	0
20090326 06:30	0.4	-3.1	0.4	92	-0.7	11	23	247	0.00	1008.063	0	0.000	0
20090326 06:35	0.4	-3.1	0.4	92	-0.7	11	24	247	0.00	1008.165	6	0.000	0
20090326 06:40	0.6	-3.3	0.6	92	-0.6	13	23	247	0.20	1008.266	6	0.000	0
20090326 06:45	0.6	-3.3	0.6	92	-0.6	13	26	270	0.00	1008.368	8	0.000	0
20090326 06:50	0.6	-2.9	0.6	92	-0.5	11	24	270	0.00	1008.435	11	0.000	0
20090326 06:55	0.7	-3.4	0.7	92	-0.4	14	29	270	0.00	1008.605	13	0.000	0
20090326 07:00	0.8	-3.6	0.8	92	-0.4	16	31	270	0.00	1008.706	7	0.000	0
20090326 07:05	0.8	-3.6	0.8	92	-0.3	16	29	270	0.00	1008.740	7	0.000	0
20090326 07:10	0.8	-3.3	0.8	92	-0.3	14	26	247	0.00	1008.808	13	0.000	0
20090326 07:15	0.9	-3.2	0.9	92	-0.3	14	31	270	0.00	1008.842	16	0.000	0
20090326 07:20	0.9	-3.5	0.9	92	-0.3	16	27	270	0.00	1009.011	10	0.000	0
20090326 07:25	0.9	-3.5	0.9	92	-0.3	16	29	270	0.00	1009.079	14	0.000	0
20090326 07:30	0.9	-3.1	0.9	91	-0.4	14	32	270	0.00	1009.181	21	0.000	0
20090326 07:35	0.9	-3.1	0.9	91	-0.4	14	27	270	0.00	1009.384	23	0.000	0
20090326 07:40	0.9	-3.2	0.9	91	-0.4	14	26	270	0.00	1009.519	25	0.000	0
20090326 07:45	0.9	-2.9	0.9	92	-0.3	13	24	270	0.00	1009.587	26	0.000	0
20090326 07:50	0.9	-2.5	0.9	92	-0.3	11	24	270	0.00	1009.621	54	0.000	0
20090326 07:55	0.9	-2.8	0.9	92	-0.2	13	21	270	0.20	1009.621	71	0.000	0
20090326 08:00	1.1	-2.7	1.1	92	-0.1	13	23	247	0.00	1009.790	80	0.020	0
20090326 08:05	1.2	-2.6	1.2	92	0.0	13	24	270	0.00	1009.892	75	0.000	0
20090326 08:10	1.3	-2.7	1.3	92	0.2	14	26	270	0.00	1009.993	80	0.000	0
20090326 08:15	1.3	-2.4	1.3	92	0.2	13	27	270	0.00	1010.061	77	0.000	0
20090326 08:20	1.3	-2.4	1.3	91	0.0	13	23	270	0.00	1010.129	89	0.000	0
20090326 08:25	1.6	-2.7	1.6	91	0.2	16	27	270	0.00	1010.163	127	0.000	0
20090326 08:30	1.7	-2.5	1.7	91	0.4	16	26	270	0.00	1010.196	152	0.000	1
20090326 08:35	1.8	-1.7	1.8	91	0.5	13	24	270	0.00	1010.332	163	0.000	1
20090326 08:40	2.0	-2.1	2.0	90	0.5	16	26	270	0.00	1010.366	152	0.000	1
20090326 08:45	2.1	-1.8	2.1	90	0.6	14	26	270	0.00	1010.400	136	0.000	1
20090326 08:50	2.2	-1.3	2.2	90	0.7	13	24	270	0.00	1010.501	150	0.000	1
20090326 08:55	2.3	-0.8	2.3	89	0.7	11	21	270	0.00	1010.637	138	0.000	1
20090326 09:00	2.5	-0.9	2.5	89	0.9	13	26	270	0.00	1010.671	182	0.040	1
20090326 09:05	2.6	-0.8	2.6	88	0.8	13	21	270	0.00	1010.738	144	0.000	1
20090326 09:10	2.7	0.0	2.7	88	0.9	10	21	270	0.00	1010.772	149	0.000	1
20090326 09:15	2.8	-1.2	2.8	87	0.8	16	31	270	0.00	1010.874	180	0.000	1
20090326 09:20	2.9	-0.7	2.9	86	0.8	14	31	247	0.00	1010.941	179	0.000	1
20090326 09:25	3.0	-0.3	3.0	87	1.1	13	27	247	0.00	1010.975	179	0.000	1
20090326 09:30	3.2	-0.7	3.2	85	0.9	16	27	270	0.00	1010.941	186	0.000	1
20090326 09:35	3.3	-1.0	3.3	85	1.0	19	32	270	0.00	1010.941	196	0.000	1
20090326 09:40	3.3	-0.7	3.3	84	0.9	18	37	270	0.00	1010.941	213	0.000	1
20090326 09:45	3.4	-0.1	3.4	84	0.9	14	37	270	0.00	1010.975	202	0.000	2
20090326 09:50	3.6	-0.2	3.6	83	0.9	16	31	247	0.00	1011.009	232	0.000	2
20090326 09:55	3.6	0.1	3.6	83	1.0	14	29	270	0.00	1011.179	259	0.000	2
20090326 10:00	3.8	0.9	3.8	84	1.3	11	24	247	0.00	1011.212	237	0.080	2
20090326 10:05	3.8	0.3	3.8	82	1.0	14	26	270	0.00	1011.145	262	0.000	2
20090326 10:10	3.9	0.8	3.9	82	1.1	13	23	270	0.00	1011.179	258	0.000	2
20090326 10:15	3.9	0.8	3.9	81	0.9	13	24	247	0.00	1011.246	224	0.000	1
20090326 10:20	3.8	0.7	3.8	80	0.7	13	27	247	0.00	1011.348	210	0.000	1
20090326 10:25	3.8	0.7	3.8	80	0.7	13	26	247	0.00	1011.382	204	0.000	1
20090326 10:30	3.8	1.0	3.8	80	0.7	11	21	247	0.00	1011.348	235	0.000	2
20090326 10:35	3.9	0.5	3.9	80	0.8	14	26	270	0.00	1011.382	296	0.000	2
20090326 10:40	4.1	0.8	4.1	79	0.8	14	24	247	0.00	1011.416	336	0.000	2
20090326 10:45	4.2	1.2	4.2	78	0.7	13	23	247	0.00	1011.517	300	0.000	2
20090326 10:50	4.3	1.3	4.3	76	0.5	13	27	247	0.00	1011.416	288	0.000	2
20090326 10:55	4.4	1.7	4.4	75	0.4	11	19	247	0.00	1011.483	377	0.000	2
20090326 11:00	4.7	2.0	4.7	77	1.0	11	21	270	0.00	1011.517	347	0.100	2
20090326 11:05	4.6	1.1	4.6	74	0.4	16	26	270	0.00	1011.517	256	0.000	2
20090326 11:10	4.6	1.9	4.6	74	0.3	11	23	247	0.00	1011.449	170	0.000	1
20090326 11:15	4.4	2.1	4.4	75	0.4	10	21	270	0.00	1011.517	69	0.000	0
20090326 11:20	4.3	2.4	4.3	77	0.7	8	19	270	0.00	1011.585	58	0.000	0
20090326 11:25	4.3	2.0	4.3	77	0.7	10	18	247	0.00	1011.585	124	0.000	1
20090326 11:30	4.3	1.6	4.3	75	0.3	11	23	270	0.00	1011.517	227	0.000	2
20090326 11:35	4.6	1.9	4.6	75	0.5	11	23	247	0.00	1011.551	286	0.000	2
20090326 11:40	4.7	2.0	4.7	73	0.2	11	19	247	0.00	1011.619	265	0.000	2
20090326 11:45	4.8	2.5	4.8	74	0.5	10	16	270	0.00	1011.517	220	0.000	2
20090326 11:50	4.8	2.2	4.8	73	0.4	11	29	247	0.00	1011.653	198	0.000	1
20090326 11:55	4.7	2.1	4.7	73	0.3	11	29	247	0.00	1011.551	129	0.000	1
20090326 12:00	4.6	1.6	4.6	72	-0.1	13	19	247	0.00	1011.754	95	0.080	1
20090326 12:05	4.5	2.2	4.5	73	0.1	10	24	247	0.00	1011.856	145	0.000	1
20090326 12:10	4.5	1.5	4.5	74	0.3	13	24	247	0.00	1011.856	145	0.000	1
20090326 12:15	4.6	1.9	4.6	74	0.3	11	23	270	0.00	1011.856	184	0.000	1
20090326 12:20	4.8	2.9	4.8	74	0.5	8	18	247	0.00	1011.822	265	0.000	2
20090326 12:25	4.9	2.3	4.9	74	0.6	11	26	247	0.00	1011.754	271	0.000	2
20090326 12:30	5.0	2.7	5.0	75	0.9	10	24	247	0.00	1011.856	198	0.000	2
20090326 12:35	5.1	2.8	5.1	76	1.2	10	21	247	0.00	1011.856	283	0.000	2
20090326 12:40	5.1	2.8	5.1	75	1.0	10	21	247	0.00	1011.822	230	0.000	2
20090326 12:45	5.0	2.7	5.0	76	1.1	10	18	247	0.00	1011.788	159	0.000	1
20090326 12:50	4.9	2.3	4.9	75	0.8	11	24	270	0.00	1011.754	134	0.000	1
20090326 12:55	4.9	2.6	4.9	77	1.2	10	19	270	0.00	1011.720	113	0.000	1
20090326 13:00	4.8	2.9	4.8	77	1.1	8	18	247	0.00	1011.754	76	0.080	0
20090326 13:05	4.5	1.8	4.5	77	0.8	11	23	247	0.00	1011.991	47	0.000	0
20090326 13:10	4.1	2.1	4.1	80	1.0	8	16	247	0.20	1012.093	49	0.000	0
20090326 13:15	3.8	1.8	3.8	82	1.0	8	18	270	0.00	1012.161	54	0.000	0
20090326 13:20	3.7	1.2	3.7	83	1.1	10	19	247	0.00	1012.228	85	0.000	1
20090326 13:25	3.7	1.2	3.7	83	1.1	10	18	270	0.20	1012.228	96	0.000	1
20090326 13:30	3.8	1.3	3.8	83	1.2	10	19	270	0.00	1012.161	97	0.000	1
20090326 13:35	3.9	2.3	3.9	84	1.4	6	19	247	0.00	1012.093	140	0.000	1
20090326 13:40	4.1	1.6	4.1	84	1.6	10	19	247	0.00	1012.059	172	0.000	1
20090326 13:45	4.2	1.8	4.2	83	1.5	10	21	247	0.00	1011.890	173	0.000	1
20090326 13:50	4.3	2.0	4.3	83	1.7	10	21	247	0.00	1011.890	154	0.000	1
20090326 13:55	4.4	1.7	4.4	81	1.5	11	27	247	0.00	1011.822	119	0.000	1
20090326 14:00	4.5	2.5	4.5	82	1.7	8	19	247	0.00	1011.754	131	0.040	1
20090326 14:05	4.4	2.1	4.4	81	1.5	10	23	270	0.00	1011.619	82	0.000	1
20090326 14:10	4.2	1.8	4.2	83	1.6	10	21	247	0.00	1011.619	67	0.000	0
20090326 14:15	4.1	2.5	4.1	84	1.6	6	16	247	0.00	1011.619	76	0.000	0
20090326 14:20	4.0	2.4	4.0	84	1.5	6	14	270	0.00	1011.585	115	0.000	1
20090326 14:25	4.1	2.0	4.1	85	1.8	8	18	247	0.00	1011.416	150	0.000	1
20090326 14:30	4.2	4.2	4.2	84	1.7	5	10	270	0.00	1011.246	148	0.000	1
20090326 14:35	4.3	4.3	4.3	84	1.8	5	11	270	0.00	1011.179	193	0.000	1
20090326 14:40	4.4	2.4	4.4	84	1.9	8	14	247	0.00	1011.179	147	0.000	1
20090326 14:45	4.5	3.0	4.5	84	2.0	6	19	247	0.00	1011.145	112	0.000	1
20090326 14:50	4.6	3.1	4.6	84	2.1	6	16	247	0.00	1011.145	81	0.000	0
20090326 14:55	4.6	3.1	4.6	83	1.9	6	11	247	0.00	1011.145	59	0.000	0
20090326 15:00	4.6	3.1	4.6	83	2.0	6	11	270	0.00	1011.043	39	0.040	0
20090326 15:05	4.7	3.2	4.7	83	2.0	6	16	247	0.00	1010.975	50	0.000	0
20090326 15:10	4.7	4.7	4.7	83	2.1	5	10	247	0.00	1010.874	87	0.000	0
20090326 15:15	4.8	3.4	4.8	83	2.2	6	14	225	0.00	1010.738	130	0.000	1
20090326 15:20	5.0	5.0	5.0	83	2.4	5	13	247	0.00	1010.603	163	0.000	1
20090326 15:25	5.3	5.3	5.3	83	2.6	3	8	270	0.00	1010.535	204	0.000	1
20090326 15:30	5.6	5.6	5.6	81	2.6	3	10	225	0.00	1010.298	257	0.000	1
20090326 15:35	6.0	6.0	6.0	80	2.8	5	11	292	0.00	1010.298	233	0.000	1
20090326 15:40	6.2	5.0	6.2	79	2.9	6	13	270	0.00	1010.264	122	0.000	1
20090326 15:45	6.3	5.1	6.3	77	2.5	6	16	270	0.00	1010.129	112	0.000	1
20090326 15:50	6.3	5.1	6.3	77	2.5	6	16	270	0.00	1010.095	87	0.000	0
20090326 15:55	6.4	5.2	6.4	76	2.5	6	14	247	0.00	1009.959	173	0.000	1
20090326 16:00	6.8	5.7	6.8	73	2.3	6	13	247	0.00	1009.790	232	0.060	1
20090326 16:05	7.1	5.0	7.1	70	2.0	11	21	247	0.00	1009.790	161	0.000	1
20090326 16:10	7.1	5.2	7.1	69	1.8	10	21	247	0.00	1009.722	102	0.000	1
20090326 16:15	6.9	5.0	6.9	70	1.8	10	16	247	0.00	1009.722	65	0.000	0
20090326 16:20	6.8	5.2	6.8	70	1.7	8	23	247	0.00	1009.655	74	0.000	0
20090326 16:25	6.7	5.6	6.7	71	1.8	6	19	270	0.00	1009.519	61	0.000	0
20090326 16:30	6.7	4.7	6.7	70	1.6	10	18	247	0.00	1009.519	37	0.000	0
20090326 16:35	6.7	5.1	6.7	72	2.0	8	21	247	0.00	1009.587	51	0.000	0
20090326 16:40	6.7	4.7	6.7	70	1.6	10	31	247	0.00	1009.655	91	0.000	0
20090326 16:45	6.7	4.4	6.7	69	1.4	11	23	247	0.00	1009.587	81	0.000	0
20090326 16:50	6.7	4.7	6.7	70	1.6	10	18	247	0.00	1009.519	66	0.000	0
20090326 16:55	6.6	5.0	6.6	70	1.5	8	21	270	0.00	1009.519	63	0.000	0
20090326 17:00	6.6	4.6	6.6	70	1.5	10	21	247	0.00	1009.553	54	0.040	0
20090326 17:05	6.5	4.5	6.5	70	1.4	10	23	247	0.00	1009.587	47	0.000	0
20090326 17:10	6.4	4.5	6.4	70	1.4	10	21	247	0.00	1009.418	52	0.000	0
20090326 17:15	6.4	4.8	6.4	71	1.6	8	24	247	0.00	1009.350	59	0.000	0
20090326 17:20	6.4	4.4	6.4	70	1.3	10	24	247	0.00	1009.384	44	0.000	0
20090326 17:25	6.3	4.3	6.3	70	1.3	10	24	247	0.00	1009.384	32	0.000	0
20090326 17:30	6.3	4.3	6.3	71	1.5	10	24	247	0.00	1009.384	27	0.000	0
20090326 17:35	6.3	4.3	6.3	71	1.4	10	23	247	0.00	1009.418	29	0.000	0
20090326 17:40	6.2	5.0	6.2	71	1.4	6	19	225	0.00	1009.384	30	0.000	0
20090326 17:45	6.2	4.5	6.2	71	1.3	8	19	247	0.00	1009.350	26	0.000	0
20090326 17:50	6.1	4.4	6.1	71	1.3	8	19	247	0.00	1009.282	31	0.000	0
20090326 17:55	6.0	3.9	6.0	71	1.1	10	21	247	0.00	1009.451	28	0.000	0
20090326 18:00	5.9	3.8	5.9	71	1.0	10	21	247	0.00	1009.384	25	0.040	0
20090326 18:05	5.8	3.7	5.8	72	1.1	10	23	247	0.00	1009.350	19	0.000	0
20090326 18:10	5.7	4.0	5.7	72	1.1	8	19	247	0.00	1009.384	17	0.000	0
20090326 18:15	5.6	3.5	5.6	73	1.2	10	19	247	0.00	1009.248	14	0.000	0
20090326 18:20	5.6	5.6	5.6	73	1.1	5	11	247	0.00	1009.282	10	0.000	0
20090326 18:25	5.5	4.2	5.5	73	1.0	6	19	247	0.00	1009.181	5	0.000	0
20090326 18:30	5.4	5.4	5.4	74	1.2	5	19	225	0.00	1009.282	0	0.000	0
20090326 18:35	5.4	5.4	5.4	74	1.2	5	14	247	0.00	1009.248	0	0.000	0
20090326 18:40	5.4	4.1	5.4	73	1.0	6	21	247	0.00	1009.147	0	0.000	0
20090326 18:45	5.5	4.2	5.5	73	1.0	6	18	247	0.00	1009.147	0	0.000	0
20090326 18:50	5.5	5.5	5.5	73	1.0	5	10	270	0.00	1009.147	0	0.000	0
20090326 18:55	5.4	5.4	5.4	73	1.0	5	10	225	0.00	1009.181	0	0.000	0
20090326 19:00	5.4	5.4	5.4	73	1.0	3	10	247	0.00	1009.045	0	0.020	0
20090326 19:05	5.4	5.4	5.4	73	1.0	5	11	225	0.00	1008.808	0	0.000	0
20090326 19:10	5.4	5.4	5.4	73	1.0	2	8	270	0.00	1008.842	0	0.000	0
20090326 19:15	5.4	5.4	5.4	73	0.9	5	10	225	0.00	1008.706	0	0.000	0
20090326 19:20	5.3	5.3	5.3	73	0.9	3	8	247	0.00	1008.673	0	0.000	0
20090326 19:25	5.3	5.3	5.3	73	0.9	2	6	225	0.00	1008.673	0	0.000	0
20090326 19:30	5.3	5.3	5.3	73	0.9	3	10	225	0.00	1008.571	0	0.000	0
20090326 19:35	5.3	5.3	5.3	73	0.8	3	8	247	0.00	1008.537	0	0.000	0
20090326 19:40	5.3	5.3	5.3	74	1.0	3	8	225	0.00	1008.537	0	0.000	0
20090326 19:45	5.2	5.2	5.2	73	0.8	3	8	225	0.00	1008.605	0	0.000	0
20090326 19:50	5.2	5.2	5.2	74	1.0	2	5	247	0.00	1008.469	0	0.000	0
20090326 19:55	5.2	5.2	5.2	74	0.9	3	6	247	0.00	1008.537	0	0.000	0
20090326 20:00	5.1	5.1	5.1	75	1.0	2	6	225	0.00	1008.571	0	0.020	0
20090326 20:05	5.1	5.1	5.1	76	1.2	3	8	225	0.00	1008.334	0	0.000	0
20090326 20:10	4.9	4.9	4.9	76	1.1	3	10	225	0.00	1008.368	0	0.000	0
20090326 20:15	4.9	4.9	4.9	75	0.9	3	10	225	0.00	1008.503	0	0.000	0
20090326 20:20	5.1	3.2	5.1	74	0.8	8	18	270	0.00	1008.605	0	0.000	0
20090326 20:25	5.3	2.7	5.3	72	0.6	11	27	247	0.00	1008.537	0	0.000	0
20090326 20:30	5.5	2.7	5.5	73	1.0	13	24	270	0.00	1008.469	0	0.000	0
20090326 20:35	5.6	3.1	5.6	74	1.3	11	24	270	0.00	1008.503	0	0.000	0
20090326 20:40	5.6	2.8	5.6	74	1.3	13	27	247	0.00	1008.402	0	0.000	0
20090326 20:45	5.5	3.7	5.5	74	1.2	8	19	270	0.00	1008.469	0	0.000	0
20090326 20:50	5.4	3.7	5.4	75	1.4	8	16	247	0.00	1008.469	0	0.000	0
20090326 20:55	5.3	3.5	5.3	76	1.4	8	18	247	0.00	1008.435	0	0.000	0
20090326 21:00	5.3	3.9	5.3	77	1.6	6	11	247	0.00	1008.503	0	0.020	0
20090326 21:05	5.2	3.9	5.2	77	1.5	6	11	247	0.00	1008.402	0	0.000	0
20090326 21:10	5.2	2.9	5.2	76	1.3	10	21	247	0.00	1008.368	0	0.000	0
20090326 21:15	5.2	3.4	5.2	76	1.3	8	18	247	0.00	1008.435	0	0.000	0
20090326 21:20	5.2	3.3	5.2	77	1.5	8	16	247	0.00	1008.435	0	0.000	0
20090326 21:25	5.1	3.7	5.1	78	1.6	6	23	270	0.00	1008.469	0	0.000	0
20090326 21:30	5.1	2.5	5.1	79	1.7	11	23	247	0.00	1008.402	0	0.000	0
20090326 21:35	4.9	2.7	4.9	80	1.8	10	23	247	0.00	1008.435	0	0.000	0
20090326 21:40	4.8	2.5	4.8	81	1.8	10	29	247	0.20	1008.503	0	0.000	0
20090326 21:45	4.7	2.4	4.7	82	1.9	10	23	247	0.00	1008.673	0	0.000	0
20090326 21:50	4.5	3.0	4.5	83	1.9	6	16	247	0.00	1008.639	0	0.000	0
20090326 21:55	4.4	2.0	4.4	83	1.8	10	21	247	0.20	1008.673	0	0.000	0
20090326 22:00	4.2	2.2	4.2	84	1.8	8	16	247	0.00	1008.605	0	0.020	0
20090326 22:05	4.2	2.2	4.2	85	1.9	8	19	225	0.20	1008.435	0	0.000	0
20090326 22:10	4.1	2.0	4.1	85	1.8	8	21	225	0.00	1008.673	0	0.000	0
20090326 22:15	4.0	1.2	4.0	85	1.7	11	26	225	0.20	1008.605	0	0.000	0
20090326 22:20	3.8	1.8	3.8	86	1.7	8	23	247	0.00	1008.605	0	0.000	0
20090326 22:25	3.7	1.6	3.7	86	1.6	8	18	247	0.20	1008.605	0	0.000	0
20090326 22:30	3.6	1.5	3.6	87	1.7	8	24	225	0.20	1008.605	0	0.000	0
20090326 22:35	3.6	1.4	3.6	88	1.8	8	16	247	0.20	1008.639	0	0.000	0
20090326 22:40	3.5	3.5	3.5	88	1.7	5	14	247	0.00	1008.605	0	0.000	0
20090326 22:45	3.4	1.7	3.4	88	1.6	6	19	247	0.20	1008.605	0	0.000	0
20090326 22:50	3.4	1.7	3.4	88	1.6	6	14	247	0.20	1008.639	0	0.000	0
20090326 22:55	3.3	1.7	3.3	89	1.7	6	16	247	0.00	1008.605	0	0.000	0
20090326 23:00	3.3	3.3	3.3	89	1.6	5	11	225	0.20	1008.706	0	0.020	0
20090326 23:05	3.2	3.2	3.2	89	1.6	5	8	247	0.00	1008.740	0	0.000	0
20090326 23:10	3.1	3.1	3.1	89	1.5	5	11	225	0.20	1008.706	0	0.000	0
20090326 23:15	2.9	1.2	2.9	89	1.3	6	14	247	0.20	1008.706	0	0.000	0
20090326 23:20	2.8	1.1	2.8	90	1.4	6	19	225	0.00	1008.706	0	0.000	0
20090326 23:25	2.7	1.0	2.7	90	1.2	6	18	247	0.00	1008.706	0	0.000	0
20090326 23:30	2.6	0.8	2.6	90	1.1	6	18	225	0.40	1008.673	0	0.000	0
20090326 23:35	2.5	2.5	2.5	90	1.0	5	18	247	0.00	1008.605	0	0.000	0
20090326 23:40	2.4	0.6	2.4	90	0.9	6	18	247	0.20	1008.605	0	0.000	0
20090326 23:45	2.4	2.4	2.4	90	0.9	5	13	247	0.00	1008.605	0	0.000	0
20090326 23:50	2.3	0.0	2.3	91	1.0	8	18	247	0.20	1008.435	0	0.000	0
20090326 23:55	2.3	-0.4	2.3	91	1.0	10	21	225	0.00	1008.435	0	0.000	0
20090326 24:00	2.3	-0.5	2.3	91	1.0	10	24	225	0.20	1008.435	0	0.000	0



Please note the license to use and transfer of this data:
http://creativecommons.org/licenses/by-nc-sa/3.0/deed.en

Bitte beachten sie die Lizenz zur Verwertung und Weitergabe der Daten:
http://creativecommons.org/licenses/by-nc-sa/3.0/deed.de

zurück zur Übersicht der Archivdaten (Monats und Tagesdaten)

Cookies helfen bei der Bereitstellung von Inhalten. Durch die Nutzung dieser Seiten erklärst du dich damit einverstanden, dass Cookies auf deinem Rechner gespeichert werden. Weitere Information